createdAt,value
2022-08-04T00:00:02.814Z,21.60
2022-08-04T00:01:02.984Z,21.60
2022-08-04T00:02:03.003Z,21.60
2022-08-04T00:03:02.912Z,21.60
2022-08-04T00:04:03.076Z,21.60
2022-08-04T00:05:03.028Z,21.60
2022-08-04T00:06:02.962Z,21.50
2022-08-04T00:07:02.991Z,21.50
2022-08-04T00:08:03.096Z,21.50
2022-08-04T00:09:03.208Z,21.50
2022-08-04T00:10:03.480Z,21.50
2022-08-04T00:11:02.737Z,21.40
2022-08-04T00:12:02.818Z,21.40
2022-08-04T00:13:02.859Z,21.40
2022-08-04T00:14:03.711Z,21.40
2022-08-04T00:15:03.019Z,21.40
2022-08-04T00:16:02.969Z,21.30
2022-08-04T00:17:03.014Z,21.30
2022-08-04T00:18:02.965Z,21.30
2022-08-04T00:19:03.133Z,21.30
2022-08-04T00:20:03.095Z,21.30
2022-08-04T00:21:03.158Z,21.20
2022-08-04T00:22:03.221Z,21.20
2022-08-04T00:23:03.143Z,21.20
2022-08-04T00:24:10.261Z,21.20
2022-08-04T00:25:03.146Z,21.20
2022-08-04T00:26:03.339Z,21.20
2022-08-04T00:27:03.359Z,21.20
2022-08-04T00:28:03.247Z,21.20
2022-08-04T00:29:03.542Z,21.10
2022-08-04T00:30:03.445Z,21.10
2022-08-04T00:31:03.571Z,21.10
2022-08-04T00:32:02.687Z,21.10
2022-08-04T00:33:02.595Z,21.10
2022-08-04T00:34:02.943Z,21.10
2022-08-04T00:35:03.585Z,21.10
2022-08-04T00:36:02.712Z,21.10
2022-08-04T00:37:03.277Z,21.10
2022-08-04T00:38:02.627Z,21.10
2022-08-04T00:39:02.901Z,21.00
2022-08-04T00:40:02.700Z,21.00
2022-08-04T00:41:02.749Z,21.00
2022-08-04T00:42:02.726Z,21.00
2022-08-04T00:43:02.731Z,21.00
2022-08-04T00:44:02.730Z,21.00
2022-08-04T00:45:02.740Z,21.00
2022-08-04T00:46:10.635Z,21.00
2022-08-04T00:47:02.748Z,21.00
2022-08-04T00:48:02.796Z,20.90
2022-08-04T00:49:02.851Z,20.90
2022-08-04T00:50:02.924Z,20.90
2022-08-04T00:51:03.049Z,20.90
2022-08-04T00:52:31.265Z,20.90
2022-08-04T00:53:03.042Z,20.90
2022-08-04T00:54:03.068Z,20.90
2022-08-04T00:55:06.817Z,20.90
2022-08-04T00:56:02.881Z,20.90
2022-08-04T00:57:02.941Z,20.90
2022-08-04T00:58:02.948Z,20.90
2022-08-04T00:59:03.078Z,20.90
2022-08-04T01:00:03.119Z,20.90
2022-08-04T01:01:03.208Z,20.80
2022-08-04T01:02:03.189Z,20.80
2022-08-04T01:03:03.289Z,20.80
2022-08-04T01:04:03.714Z,20.80
2022-08-04T01:05:03.332Z,20.80
2022-08-04T01:06:03.340Z,20.80
2022-08-04T01:07:03.391Z,20.70
2022-08-04T01:08:03.448Z,20.70
2022-08-04T01:09:03.467Z,20.70
2022-08-04T01:10:03.522Z,20.70
2022-08-04T01:11:03.537Z,20.70
2022-08-04T01:12:03.566Z,20.70
2022-08-04T01:13:03.482Z,20.70
2022-08-04T01:14:03.579Z,20.60
2022-08-04T01:15:03.623Z,20.60
2022-08-04T01:16:02.714Z,20.60
2022-08-04T01:17:02.721Z,20.60
2022-08-04T01:18:02.743Z,20.60
2022-08-04T01:19:02.809Z,20.60
2022-08-04T01:20:02.805Z,20.60
2022-08-04T01:21:03.042Z,20.60
2022-08-04T01:22:03.057Z,20.50
2022-08-04T01:23:03.008Z,20.50
2022-08-04T01:24:03.028Z,20.50
2022-08-04T01:25:04.506Z,20.50
2022-08-04T01:26:03.174Z,20.50
2022-08-04T01:27:03.845Z,20.50
2022-08-04T01:28:02.856Z,20.40
2022-08-04T01:29:02.949Z,20.40
2022-08-04T01:30:03.008Z,20.40
2022-08-04T01:31:03.123Z,20.40
2022-08-04T01:32:03.104Z,20.40
2022-08-04T01:33:03.126Z,20.40
2022-08-04T01:34:04.623Z,20.40
2022-08-04T01:35:03.299Z,20.40
2022-08-04T01:36:03.393Z,20.40
2022-08-04T01:37:03.398Z,20.40
2022-08-04T01:38:18.129Z,20.40
2022-08-04T01:39:03.523Z,20.40
2022-08-04T01:40:03.530Z,20.30
2022-08-04T01:41:03.538Z,20.30
2022-08-04T01:42:03.536Z,20.30
2022-08-04T01:43:03.517Z,20.30
2022-08-04T01:44:03.557Z,20.30
2022-08-04T01:45:02.866Z,20.30
2022-08-04T01:46:02.902Z,20.30
2022-08-04T01:47:03.083Z,20.30
2022-08-04T01:48:03.092Z,20.30
2022-08-04T01:49:03.154Z,20.20
2022-08-04T01:50:03.235Z,20.20
2022-08-04T01:51:03.396Z,20.20
2022-08-04T01:52:03.484Z,20.20
2022-08-04T01:53:03.510Z,20.20
2022-08-04T01:54:03.568Z,20.20
2022-08-04T01:55:03.600Z,20.20
2022-08-04T01:56:03.593Z,20.20
2022-08-04T01:57:37.378Z,20.20
2022-08-04T01:58:02.703Z,20.10
2022-08-04T01:59:02.760Z,20.10
2022-08-04T02:00:02.804Z,20.10
2022-08-04T02:01:05.186Z,20.10
2022-08-04T02:02:02.889Z,20.10
2022-08-04T02:03:02.768Z,20.10
2022-08-04T02:04:19.220Z,20.10
2022-08-04T02:05:02.821Z,20.10
2022-08-04T02:06:04.068Z,20.00
2022-08-04T02:07:02.850Z,20.00
2022-08-04T02:08:02.906Z,20.00
2022-08-04T02:09:03.041Z,20.00
2022-08-04T02:10:03.020Z,20.00
2022-08-04T02:11:03.130Z,20.00
2022-08-04T02:12:03.104Z,20.00
2022-08-04T02:13:03.142Z,20.00
2022-08-04T02:14:03.186Z,19.90
2022-08-04T02:15:03.308Z,19.90
2022-08-04T02:16:03.291Z,19.90
2022-08-04T02:17:03.354Z,19.90
2022-08-04T02:18:03.439Z,19.90
2022-08-04T02:19:03.418Z,19.90
2022-08-04T02:20:03.345Z,19.90
2022-08-04T02:21:03.395Z,19.90
2022-08-04T02:22:03.557Z,19.90
2022-08-04T02:23:03.524Z,19.80
2022-08-04T02:24:02.655Z,19.80
2022-08-04T02:25:02.794Z,19.80
2022-08-04T02:26:03.188Z,19.80
2022-08-04T02:27:03.373Z,19.80
2022-08-04T02:28:03.386Z,19.80
2022-08-04T02:29:03.507Z,19.80
2022-08-04T02:30:03.576Z,19.80
2022-08-04T02:31:03.535Z,19.80
2022-08-04T02:32:02.675Z,19.80
2022-08-04T02:33:02.787Z,19.80
2022-08-04T02:34:03.447Z,19.80
2022-08-04T02:35:03.475Z,19.80
2022-08-04T02:36:03.390Z,19.70
2022-08-04T02:37:03.472Z,19.70
2022-08-04T02:38:03.459Z,19.70
2022-08-04T02:39:03.646Z,19.70
2022-08-04T02:40:02.621Z,19.70
2022-08-04T02:41:02.706Z,19.70
2022-08-04T02:42:02.791Z,19.70
2022-08-04T02:43:02.898Z,19.60
2022-08-04T02:44:02.944Z,19.60
2022-08-04T02:45:02.935Z,19.60
2022-08-04T02:46:02.966Z,19.60
2022-08-04T02:47:02.912Z,19.60
2022-08-04T02:48:08.486Z,19.60
2022-08-04T02:49:02.997Z,19.60
2022-08-04T02:50:03.057Z,19.50
2022-08-04T02:51:03.180Z,19.50
2022-08-04T02:52:03.206Z,19.50
2022-08-04T02:53:03.222Z,19.50
2022-08-04T02:54:03.251Z,19.50
2022-08-04T02:55:03.238Z,19.50
2022-08-04T02:56:03.221Z,19.50
2022-08-04T02:57:04.283Z,19.50
2022-08-04T02:58:03.224Z,19.50
2022-08-04T02:59:03.353Z,19.50
2022-08-04T03:00:03.303Z,19.40
2022-08-04T03:01:03.409Z,19.40
2022-08-04T03:02:03.364Z,19.40
2022-08-04T03:03:03.353Z,19.40
2022-08-04T03:04:03.355Z,19.40
2022-08-04T03:05:03.457Z,19.40
2022-08-04T03:06:06.428Z,19.40
2022-08-04T03:07:03.503Z,19.40
2022-08-04T03:08:03.593Z,19.40
2022-08-04T03:09:03.627Z,19.40
2022-08-04T03:10:03.610Z,19.30
2022-08-04T03:11:02.631Z,19.30
2022-08-04T03:12:02.637Z,19.30
2022-08-04T03:13:02.804Z,19.30
2022-08-04T03:14:05.117Z,19.30
2022-08-04T03:15:02.895Z,19.30
2022-08-04T03:16:02.894Z,19.30
2022-08-04T03:17:02.987Z,19.30
2022-08-04T03:18:03.119Z,19.30
2022-08-04T03:19:03.100Z,19.30
2022-08-04T03:20:03.103Z,19.20
2022-08-04T03:21:03.214Z,19.20
2022-08-04T03:22:03.289Z,19.20
2022-08-04T03:23:12.850Z,19.20
2022-08-04T03:24:03.259Z,19.20
2022-08-04T03:25:03.270Z,19.20
2022-08-04T03:26:03.359Z,19.20
2022-08-04T03:27:03.366Z,19.20
2022-08-04T03:28:03.468Z,19.20
2022-08-04T03:29:03.425Z,19.10
2022-08-04T03:30:03.585Z,19.10
2022-08-04T03:31:03.631Z,19.10
2022-08-04T03:32:03.605Z,19.10
2022-08-04T03:33:03.605Z,19.10
2022-08-04T03:34:02.645Z,19.10
2022-08-04T03:35:02.755Z,19.10
2022-08-04T03:36:02.676Z,19.10
2022-08-04T03:37:02.695Z,19.10
2022-08-04T03:38:02.731Z,19.10
2022-08-04T03:39:02.913Z,19.10
2022-08-04T03:40:02.860Z,19.10
2022-08-04T03:41:02.927Z,19.10
2022-08-04T03:42:04.532Z,19.00
2022-08-04T03:43:02.856Z,19.00
2022-08-04T03:44:02.860Z,19.00
2022-08-04T03:45:02.925Z,19.00
2022-08-04T03:46:02.949Z,19.00
2022-08-04T03:47:03.092Z,19.00
2022-08-04T03:48:03.071Z,19.00
2022-08-04T03:49:03.080Z,19.00
2022-08-04T03:50:03.104Z,19.00
2022-08-04T03:51:03.121Z,19.00
2022-08-04T03:52:03.161Z,19.00
2022-08-04T03:53:03.263Z,19.00
2022-08-04T03:54:03.317Z,19.00
2022-08-04T03:55:03.380Z,19.00
2022-08-04T03:56:03.561Z,19.00
2022-08-04T03:57:03.159Z,19.00
2022-08-04T03:58:03.221Z,19.00
2022-08-04T03:59:03.301Z,18.90
2022-08-04T04:00:03.305Z,18.90
2022-08-04T04:01:03.258Z,18.90
2022-08-04T04:02:06.678Z,18.90
2022-08-04T04:03:03.308Z,18.90
2022-08-04T04:04:03.238Z,18.90
2022-08-04T04:05:03.293Z,18.90
2022-08-04T04:06:03.328Z,18.90
2022-08-04T04:07:04.176Z,18.90
2022-08-04T04:08:03.768Z,18.90
2022-08-04T04:09:03.328Z,18.90
2022-08-04T04:10:05.123Z,18.90
2022-08-04T04:11:03.447Z,18.90
2022-08-04T04:12:03.419Z,18.90
2022-08-04T04:13:03.458Z,18.90
2022-08-04T04:14:03.505Z,18.90
2022-08-04T04:15:03.463Z,18.90
2022-08-04T04:16:03.508Z,18.90
2022-08-04T04:17:03.534Z,18.90
2022-08-04T04:18:02.626Z,18.90
2022-08-04T04:19:02.757Z,18.90
2022-08-04T04:20:02.757Z,18.90
2022-08-04T04:21:02.746Z,18.90
2022-08-04T04:22:02.717Z,18.90
2022-08-04T04:23:02.731Z,18.90
2022-08-04T04:24:02.731Z,18.90
2022-08-04T04:25:03.106Z,18.90
2022-08-04T04:26:03.195Z,18.90
2022-08-04T04:27:03.330Z,18.90
2022-08-04T04:28:44.025Z,18.90
2022-08-04T04:29:03.460Z,18.90
2022-08-04T04:30:02.746Z,18.90
2022-08-04T04:31:02.752Z,19.00
2022-08-04T04:32:02.819Z,19.00
2022-08-04T04:33:02.869Z,19.00
2022-08-04T04:34:02.840Z,19.00
2022-08-04T04:35:02.909Z,19.10
2022-08-04T04:36:02.976Z,19.10
2022-08-04T04:37:02.880Z,19.20
2022-08-04T04:38:03.043Z,19.30
2022-08-04T04:39:03.174Z,19.40
2022-08-04T04:40:03.488Z,19.50
2022-08-04T04:41:03.296Z,19.70
2022-08-04T04:42:03.377Z,19.80
2022-08-04T04:43:03.334Z,20.00
2022-08-04T04:44:03.485Z,20.20
2022-08-04T04:45:03.492Z,20.30
2022-08-04T04:46:03.404Z,20.50
2022-08-04T04:47:03.576Z,20.70
2022-08-04T04:48:07.953Z,20.90
2022-08-04T04:49:03.530Z,21.10
2022-08-04T04:50:03.539Z,21.30
2022-08-04T04:51:03.481Z,21.50
2022-08-04T04:52:03.498Z,21.70
2022-08-04T04:53:02.627Z,21.90
2022-08-04T04:54:02.718Z,22.00
2022-08-04T04:55:02.682Z,22.20
2022-08-04T04:56:02.655Z,22.40
2022-08-04T04:57:02.765Z,22.60
2022-08-04T04:58:02.748Z,22.70
2022-08-04T04:59:02.907Z,22.90
2022-08-04T05:00:02.955Z,23.10
2022-08-04T05:01:02.966Z,23.20
2022-08-04T05:02:03.005Z,23.40
2022-08-04T05:03:06.078Z,23.50
2022-08-04T05:04:03.119Z,23.70
2022-08-04T05:05:03.111Z,23.80
2022-08-04T05:06:03.053Z,24.00
2022-08-04T05:07:03.047Z,24.10
2022-08-04T05:08:04.336Z,24.20
2022-08-04T05:09:02.750Z,24.30
2022-08-04T05:10:02.748Z,24.40
2022-08-04T05:11:02.741Z,24.60
2022-08-04T05:12:02.775Z,24.70
2022-08-04T05:14:34.144Z,24.90
2022-08-04T05:14:34.153Z,24.80
2022-08-04T05:15:03.138Z,25.10
2022-08-04T05:16:03.145Z,25.10
2022-08-04T05:17:03.344Z,25.20
2022-08-04T05:18:03.225Z,25.30
2022-08-04T05:19:03.235Z,25.40
2022-08-04T05:20:03.339Z,25.40
2022-08-04T05:21:03.308Z,25.50
2022-08-04T05:22:03.371Z,25.60
2022-08-04T05:23:03.427Z,25.60
2022-08-04T05:24:03.445Z,25.70
2022-08-04T05:25:03.497Z,25.80
2022-08-04T05:26:03.536Z,25.90
2022-08-04T05:27:03.559Z,26.00
2022-08-04T05:28:03.561Z,26.10
2022-08-04T05:29:02.642Z,26.20
2022-08-04T05:30:02.814Z,26.30
2022-08-04T05:31:02.775Z,26.40
2022-08-04T05:32:02.815Z,26.50
2022-08-04T05:33:02.775Z,26.60
2022-08-04T05:34:02.716Z,26.70
2022-08-04T05:35:02.931Z,26.80
2022-08-04T05:36:20.919Z,27.00
2022-08-04T05:37:03.066Z,27.00
2022-08-04T05:38:03.107Z,27.20
2022-08-04T05:39:03.191Z,27.30
2022-08-04T05:40:03.104Z,27.40
2022-08-04T05:41:03.199Z,27.50
2022-08-04T05:42:04.268Z,27.60
2022-08-04T05:43:03.212Z,27.70
2022-08-04T05:44:03.235Z,27.80
2022-08-04T05:45:03.349Z,27.90
2022-08-04T05:46:03.381Z,28.00
2022-08-04T05:47:03.473Z,28.10
2022-08-04T05:48:03.540Z,28.20
2022-08-04T05:49:03.638Z,28.20
2022-08-04T05:50:03.649Z,28.30
2022-08-04T05:51:02.690Z,28.40
2022-08-04T05:52:02.874Z,28.50
2022-08-04T05:53:02.777Z,28.50
2022-08-04T05:54:02.783Z,28.60
2022-08-04T05:55:02.905Z,28.70
2022-08-04T05:56:02.980Z,28.80
2022-08-04T05:57:03.083Z,28.90
2022-08-04T05:58:03.147Z,29.00
2022-08-04T05:59:03.209Z,29.10
2022-08-04T06:00:14.781Z,29.10
2022-08-04T06:01:03.433Z,29.20
2022-08-04T06:02:03.508Z,29.30
2022-08-04T06:03:03.424Z,29.30
2022-08-04T06:04:06.840Z,29.40
2022-08-04T06:05:03.571Z,29.40
2022-08-04T06:06:03.589Z,29.50
2022-08-04T06:07:03.625Z,29.50
2022-08-04T06:08:04.764Z,29.60
2022-08-04T06:09:02.827Z,29.60
2022-08-04T06:10:02.754Z,29.70
2022-08-04T06:11:02.803Z,29.80
2022-08-04T06:12:04.063Z,29.80
2022-08-04T06:13:03.078Z,29.90
2022-08-04T06:14:03.060Z,29.90
2022-08-04T06:15:03.120Z,30.00
2022-08-04T06:16:03.201Z,30.10
2022-08-04T06:17:03.421Z,30.20
2022-08-04T06:18:34.349Z,30.20
2022-08-04T06:20:01.665Z,30.30
2022-08-04T06:20:17.756Z,30.30
2022-08-04T06:21:02.668Z,30.40
2022-08-04T06:22:02.745Z,30.40
2022-08-04T06:23:02.738Z,30.50
2022-08-04T06:24:04.634Z,30.60
2022-08-04T06:25:02.665Z,30.60
2022-08-04T06:26:02.816Z,30.70
2022-08-04T06:27:02.827Z,30.70
2022-08-04T06:28:02.849Z,30.80
2022-08-04T06:29:02.878Z,30.80
2022-08-04T06:30:02.877Z,30.80
2022-08-04T06:32:26.584Z,30.80
2022-08-04T06:32:29.396Z,30.80
2022-08-04T06:33:03.240Z,30.80
2022-08-04T06:34:02.796Z,30.80
2022-08-04T06:35:02.755Z,30.90
2022-08-04T06:36:02.807Z,30.90
2022-08-04T06:37:02.897Z,30.90
2022-08-04T06:38:03.055Z,30.90
2022-08-04T06:39:02.937Z,31.00
2022-08-04T06:40:03.013Z,31.00
2022-08-04T06:41:03.031Z,31.00
2022-08-04T06:42:14.865Z,31.10
2022-08-04T06:43:03.108Z,31.10
2022-08-04T06:44:03.183Z,31.20
2022-08-04T06:45:03.077Z,31.20
2022-08-04T06:46:03.167Z,31.30
2022-08-04T06:47:03.121Z,31.40
2022-08-04T06:48:03.095Z,31.40
2022-08-04T06:49:03.190Z,31.50
2022-08-04T06:51:23.887Z,31.50
2022-08-04T06:51:23.996Z,31.50
2022-08-04T06:52:03.264Z,31.60
2022-08-04T06:53:03.348Z,31.60
2022-08-04T06:54:03.459Z,31.70
2022-08-04T06:55:03.434Z,31.80
2022-08-04T06:56:03.409Z,31.80
2022-08-04T06:57:03.508Z,31.90
2022-08-04T06:58:03.732Z,32.00
2022-08-04T06:59:03.510Z,32.10
2022-08-04T07:00:03.542Z,32.10
2022-08-04T07:01:02.720Z,32.20
2022-08-04T07:02:02.734Z,32.20
2022-08-04T07:03:02.839Z,32.30
2022-08-04T07:04:02.949Z,32.40
2022-08-04T07:05:07.305Z,32.40
2022-08-04T07:06:05.560Z,32.40
2022-08-04T07:07:03.083Z,32.50
2022-08-04T07:08:03.002Z,32.50
2022-08-04T07:09:03.035Z,32.60
2022-08-04T07:10:03.049Z,32.60
2022-08-04T07:11:02.968Z,32.70
2022-08-04T07:12:03.104Z,32.80
2022-08-04T07:13:03.205Z,32.80
2022-08-04T07:14:03.327Z,32.90
2022-08-04T07:15:03.312Z,32.90
2022-08-04T07:16:03.349Z,33.00
2022-08-04T07:17:03.395Z,33.00
2022-08-04T07:18:03.393Z,33.00
2022-08-04T07:19:09.740Z,33.00
2022-08-04T07:20:03.433Z,33.00
2022-08-04T07:21:03.493Z,33.00
2022-08-04T07:22:16.461Z,33.00
2022-08-04T07:23:02.637Z,33.00
2022-08-04T07:24:02.657Z,33.00
2022-08-04T07:25:02.701Z,33.00
2022-08-04T07:26:11.534Z,33.00
2022-08-04T07:27:02.818Z,33.00
2022-08-04T07:28:02.836Z,33.10
2022-08-04T07:29:03.002Z,33.10
2022-08-04T07:30:03.164Z,33.10
2022-08-04T07:31:03.219Z,33.20
2022-08-04T07:32:03.129Z,33.20
2022-08-04T07:33:03.327Z,33.20
2022-08-04T07:34:11.648Z,33.20
2022-08-04T07:35:03.411Z,33.30
2022-08-04T07:36:04.331Z,33.30
2022-08-04T07:37:03.428Z,33.30
2022-08-04T07:38:03.483Z,33.30
2022-08-04T07:39:02.749Z,33.40
2022-08-04T07:40:02.757Z,33.40
2022-08-04T07:41:02.748Z,33.50
2022-08-04T07:42:02.786Z,33.50
2022-08-04T07:43:02.810Z,33.60
2022-08-04T07:44:02.852Z,33.60
2022-08-04T07:45:02.880Z,33.70
2022-08-04T07:46:02.864Z,33.70
2022-08-04T07:47:02.940Z,33.70
2022-08-04T07:48:04.471Z,33.70
2022-08-04T07:49:02.926Z,33.80
2022-08-04T07:50:02.862Z,33.80
2022-08-04T07:51:02.894Z,33.90
2022-08-04T07:52:02.886Z,33.90
2022-08-04T07:53:23.267Z,33.90
2022-08-04T07:54:03.120Z,34.00
2022-08-04T07:55:03.074Z,34.00
2022-08-04T07:56:03.073Z,34.00
2022-08-04T07:57:03.089Z,34.00
2022-08-04T07:58:03.046Z,34.00
2022-08-04T07:59:03.125Z,34.00
2022-08-04T08:00:03.164Z,34.00
2022-08-04T08:01:03.151Z,34.00
2022-08-04T08:02:03.040Z,34.00
2022-08-04T08:03:03.085Z,34.00
2022-08-04T08:04:03.189Z,34.10
2022-08-04T08:05:02.967Z,34.10
2022-08-04T08:06:18.382Z,34.10
2022-08-04T08:07:03.091Z,34.10
2022-08-04T08:08:03.018Z,34.10
2022-08-04T08:09:12.229Z,34.20
2022-08-04T08:10:03.140Z,34.20
2022-08-04T08:11:03.057Z,34.20
2022-08-04T08:12:34.537Z,34.20
2022-08-04T08:13:02.789Z,34.20
2022-08-04T08:14:03.009Z,34.20
2022-08-04T08:15:02.986Z,34.30
2022-08-04T08:16:02.872Z,34.30
2022-08-04T08:17:03.066Z,34.30
2022-08-04T08:18:03.142Z,34.30
2022-08-04T08:19:03.097Z,34.30
2022-08-04T08:20:03.233Z,34.30
2022-08-04T08:21:03.334Z,34.30
2022-08-04T08:22:03.465Z,34.30
2022-08-04T08:23:03.541Z,34.30
2022-08-04T08:24:03.460Z,34.30
2022-08-04T08:25:03.543Z,34.30
2022-08-04T08:26:02.650Z,34.30
2022-08-04T08:27:02.605Z,34.30
2022-08-04T08:28:02.801Z,34.40
2022-08-04T08:29:02.665Z,34.40
2022-08-04T08:30:02.704Z,34.40
2022-08-04T08:31:02.649Z,34.40
2022-08-04T08:32:07.658Z,34.40
2022-08-04T08:33:03.238Z,34.50
2022-08-04T08:34:02.918Z,34.50
2022-08-04T08:35:02.961Z,34.60
2022-08-04T08:36:02.920Z,34.60
2022-08-04T08:37:02.919Z,34.70
2022-08-04T08:38:02.915Z,34.70
2022-08-04T08:39:02.901Z,34.70
2022-08-04T08:40:03.041Z,34.80
2022-08-04T08:41:03.195Z,34.80
2022-08-04T08:42:03.082Z,34.80
2022-08-04T08:43:03.719Z,34.80
2022-08-04T08:44:06.642Z,34.80
2022-08-04T08:45:03.128Z,34.90
2022-08-04T08:46:03.186Z,34.90
2022-08-04T08:47:03.311Z,34.90
2022-08-04T08:48:05.649Z,35.00
2022-08-04T08:49:03.526Z,35.00
2022-08-04T08:50:04.572Z,35.10
2022-08-04T08:51:03.611Z,35.10
2022-08-04T08:52:03.610Z,35.20
2022-08-04T08:53:03.610Z,35.20
2022-08-04T08:54:03.626Z,35.20
2022-08-04T08:55:03.572Z,35.20
2022-08-04T08:56:02.754Z,35.20
2022-08-04T08:57:02.766Z,35.20
2022-08-04T08:58:02.880Z,35.20
2022-08-04T08:59:02.727Z,35.30
2022-08-04T09:00:02.812Z,35.30
2022-08-04T09:01:02.871Z,35.30
2022-08-04T09:02:02.855Z,35.40
2022-08-04T09:03:04.374Z,35.40
2022-08-04T09:04:02.906Z,35.40
2022-08-04T09:05:02.888Z,35.50
2022-08-04T09:06:02.919Z,35.50
2022-08-04T09:07:03.026Z,35.50
2022-08-04T09:08:03.026Z,35.50
2022-08-04T09:09:03.111Z,35.60
2022-08-04T09:10:03.231Z,35.60
2022-08-04T09:11:03.202Z,35.60
2022-08-04T09:12:03.229Z,35.60
2022-08-04T09:13:03.184Z,35.60
2022-08-04T09:14:03.256Z,35.60
2022-08-04T09:15:03.304Z,35.60
2022-08-04T09:16:03.301Z,35.60
2022-08-04T09:17:03.489Z,35.60
2022-08-04T09:18:03.476Z,35.60
2022-08-04T09:19:03.525Z,35.60
2022-08-04T09:20:02.670Z,35.60
2022-08-04T09:21:02.652Z,35.70
2022-08-04T09:22:02.702Z,35.70
2022-08-04T09:23:02.841Z,35.70
2022-08-04T09:24:02.955Z,35.70
2022-08-04T09:25:03.068Z,35.70
2022-08-04T09:26:03.036Z,35.80
2022-08-04T09:27:03.092Z,35.70
2022-08-04T09:28:06.103Z,35.70
2022-08-04T09:29:03.091Z,35.70
2022-08-04T09:30:03.166Z,35.70
2022-08-04T09:31:03.182Z,35.80
2022-08-04T09:32:06.575Z,35.80
2022-08-04T09:33:03.383Z,35.80
2022-08-04T09:34:03.453Z,35.80
2022-08-04T09:35:05.631Z,35.80
2022-08-04T09:36:03.549Z,35.80
2022-08-04T09:37:03.585Z,35.80
2022-08-04T09:38:02.649Z,35.90
2022-08-04T09:39:02.759Z,35.80
2022-08-04T09:40:02.751Z,35.80
2022-08-04T09:41:02.718Z,35.80
2022-08-04T09:42:02.763Z,35.80
2022-08-04T09:43:02.756Z,35.80
2022-08-04T09:44:43.281Z,35.70
2022-08-04T09:45:06.052Z,35.70
2022-08-04T09:46:03.348Z,35.70
2022-08-04T09:47:03.386Z,35.70
2022-08-04T09:48:03.513Z,35.60
2022-08-04T09:49:03.487Z,35.60
2022-08-04T09:50:03.442Z,35.60
2022-08-04T09:51:03.489Z,35.60
2022-08-04T09:52:03.610Z,35.60
2022-08-04T09:53:03.582Z,35.70
2022-08-04T09:54:02.631Z,35.70
2022-08-04T09:55:03.559Z,35.70
2022-08-04T09:56:03.871Z,35.70
2022-08-04T09:57:03.650Z,35.70
2022-08-04T09:58:02.605Z,35.70
2022-08-04T09:59:02.613Z,35.80
2022-08-04T10:00:02.858Z,35.80
2022-08-04T10:01:02.893Z,35.80
2022-08-04T10:02:02.933Z,35.90
2022-08-04T10:03:02.973Z,35.90
2022-08-04T10:04:03.016Z,35.90
2022-08-04T10:05:03.115Z,35.90
2022-08-04T10:06:03.083Z,36.00
2022-08-04T10:07:03.182Z,36.00
2022-08-04T10:08:16.044Z,36.00
2022-08-04T10:09:03.427Z,36.00
2022-08-04T10:10:03.482Z,36.00
2022-08-04T10:11:03.421Z,36.00
2022-08-04T10:12:03.868Z,36.00
2022-08-04T10:13:03.567Z,36.00
2022-08-04T10:14:02.772Z,36.00
2022-08-04T10:15:02.747Z,35.90
2022-08-04T10:16:02.786Z,35.90
2022-08-04T10:17:02.934Z,35.90
2022-08-04T10:18:02.955Z,35.90
2022-08-04T10:19:08.117Z,35.90
2022-08-04T10:20:03.005Z,35.90
2022-08-04T10:21:09.085Z,36.00
2022-08-04T10:22:27.494Z,36.00
2022-08-04T10:23:11.338Z,36.10
2022-08-04T10:24:03.000Z,36.10
2022-08-04T10:25:03.080Z,36.10
2022-08-04T10:26:06.305Z,36.10
2022-08-04T10:27:03.196Z,36.10
2022-08-04T10:28:03.287Z,36.10
2022-08-04T10:29:03.249Z,36.10
2022-08-04T10:30:03.446Z,36.20
2022-08-04T10:31:03.403Z,36.20
2022-08-04T10:32:03.482Z,36.20
2022-08-04T10:33:03.487Z,36.20
2022-08-04T10:34:03.502Z,36.20
2022-08-04T10:35:03.533Z,36.30
2022-08-04T10:36:03.638Z,36.30
2022-08-04T10:37:03.608Z,36.30
2022-08-04T10:38:02.859Z,36.30
2022-08-04T10:39:02.811Z,36.30
2022-08-04T10:40:02.856Z,36.30
2022-08-04T10:41:02.710Z,36.20
2022-08-04T10:42:02.739Z,36.20
2022-08-04T10:43:02.675Z,36.20
2022-08-04T10:44:02.734Z,36.20
2022-08-04T10:45:02.752Z,36.20
2022-08-04T10:46:02.836Z,36.20
2022-08-04T10:47:02.768Z,36.30
2022-08-04T10:48:02.769Z,36.30
2022-08-04T10:49:02.815Z,36.30
2022-08-04T10:50:02.798Z,36.30
2022-08-04T10:51:02.800Z,36.40
2022-08-04T10:52:02.783Z,36.40
2022-08-04T10:53:02.884Z,36.40
2022-08-04T10:54:02.902Z,36.50
2022-08-04T10:55:02.932Z,36.50
2022-08-04T10:56:06.083Z,36.50
2022-08-04T10:57:02.999Z,36.50
2022-08-04T10:58:02.985Z,36.50
2022-08-04T10:59:03.135Z,36.50
2022-08-04T11:00:03.646Z,36.50
2022-08-04T11:01:03.085Z,36.50
2022-08-04T11:02:03.700Z,36.50
2022-08-04T11:03:03.171Z,36.50
2022-08-04T11:04:03.151Z,36.60
2022-08-04T11:05:03.269Z,36.60
2022-08-04T11:06:03.298Z,36.50
2022-08-04T11:07:03.430Z,36.50
2022-08-04T11:08:04.217Z,36.50
2022-08-04T11:09:03.496Z,36.50
2022-08-04T11:10:03.482Z,36.40
2022-08-04T11:11:03.610Z,36.30
2022-08-04T11:12:02.637Z,36.30
2022-08-04T11:13:02.748Z,36.30
2022-08-04T11:14:02.678Z,36.30
2022-08-04T11:15:02.743Z,36.30
2022-08-04T11:16:02.663Z,36.30
2022-08-04T11:17:02.800Z,36.30
2022-08-04T11:18:02.840Z,36.30
2022-08-04T11:19:02.916Z,36.30
2022-08-04T11:20:18.533Z,36.40
2022-08-04T11:21:02.953Z,36.40
2022-08-04T11:22:03.051Z,36.40
2022-08-04T11:23:02.985Z,36.50
2022-08-04T11:24:02.986Z,36.50
2022-08-04T11:25:03.119Z,36.50
2022-08-04T11:26:03.182Z,36.50
2022-08-04T11:27:03.191Z,36.50
2022-08-04T11:28:03.226Z,36.50
2022-08-04T11:29:04.369Z,36.60
2022-08-04T11:30:03.225Z,36.60
2022-08-04T11:31:03.266Z,36.70
2022-08-04T11:32:03.314Z,36.70
2022-08-04T11:33:03.450Z,36.70
2022-08-04T11:34:03.518Z,36.80
2022-08-04T11:35:03.552Z,36.80
2022-08-04T11:36:03.611Z,36.80
2022-08-04T11:37:03.593Z,36.80
2022-08-04T11:38:02.707Z,36.90
2022-08-04T11:39:02.745Z,36.90
2022-08-04T11:40:02.689Z,36.80
2022-08-04T11:41:03.311Z,36.80
2022-08-04T11:42:02.819Z,36.80
2022-08-04T11:43:02.883Z,36.70
2022-08-04T11:44:05.718Z,36.70
2022-08-04T11:45:03.106Z,36.70
2022-08-04T11:46:03.079Z,36.70
2022-08-04T11:47:03.151Z,36.60
2022-08-04T11:48:03.298Z,36.60
2022-08-04T11:49:03.356Z,36.60
2022-08-04T11:50:03.390Z,36.50
2022-08-04T11:51:03.472Z,36.50
2022-08-04T11:52:03.545Z,36.50
2022-08-04T11:53:03.502Z,36.50
2022-08-04T11:54:03.484Z,36.50
2022-08-04T11:55:03.415Z,36.50
2022-08-04T11:56:07.240Z,36.60
2022-08-04T11:57:03.513Z,36.60
2022-08-04T11:58:02.679Z,36.60
2022-08-04T11:59:02.650Z,36.60
2022-08-04T12:00:05.441Z,36.70
2022-08-04T12:01:02.739Z,36.70
2022-08-04T12:02:02.784Z,36.80
2022-08-04T12:03:02.748Z,36.80
2022-08-04T12:04:03.582Z,36.80
2022-08-04T12:05:02.851Z,36.80
2022-08-04T12:06:02.901Z,36.80
2022-08-04T12:07:28.702Z,36.80
2022-08-04T12:08:02.683Z,36.80
2022-08-04T12:09:02.807Z,36.80
2022-08-04T12:10:02.890Z,36.80
2022-08-04T12:11:02.847Z,36.90
2022-08-04T12:12:02.847Z,36.80
2022-08-04T12:13:03.255Z,36.90
2022-08-04T12:14:03.005Z,36.90
2022-08-04T12:15:02.987Z,36.90
2022-08-04T12:16:03.078Z,36.80
2022-08-04T12:17:03.186Z,36.80
2022-08-04T12:18:03.620Z,36.80
2022-08-04T12:19:03.305Z,36.80
2022-08-04T12:20:29.993Z,36.80
2022-08-04T12:21:02.875Z,36.80
2022-08-04T12:22:02.782Z,36.80
2022-08-04T12:23:02.897Z,36.70
2022-08-04T12:24:02.810Z,36.60
2022-08-04T12:25:02.887Z,36.60
2022-08-04T12:26:02.835Z,36.50
2022-08-04T12:27:02.801Z,36.40
2022-08-04T12:28:02.848Z,36.30
2022-08-04T12:29:10.724Z,36.20
2022-08-04T12:30:56.460Z,36.10
2022-08-04T12:31:05.191Z,36.00
2022-08-04T12:32:03.143Z,36.00
2022-08-04T12:33:03.295Z,35.90
2022-08-04T12:34:06.072Z,35.80
2022-08-04T12:35:03.141Z,35.80
2022-08-04T12:36:10.783Z,35.80
2022-08-04T12:37:03.182Z,35.80
2022-08-04T12:38:03.071Z,35.90
2022-08-04T12:39:03.269Z,35.90
2022-08-04T12:40:21.768Z,35.90
2022-08-04T12:41:03.261Z,36.00
2022-08-04T12:42:03.297Z,36.00
2022-08-04T12:43:03.327Z,36.10
2022-08-04T12:44:03.408Z,36.10
2022-08-04T12:45:03.486Z,36.20
2022-08-04T12:46:03.661Z,36.20
2022-08-04T12:47:26.033Z,36.20
2022-08-04T12:48:02.608Z,36.20
2022-08-04T12:49:02.751Z,36.20
2022-08-04T12:50:03.106Z,36.20
2022-08-04T12:51:02.787Z,36.20
2022-08-04T12:52:07.226Z,36.20